createdAt,value
2022-11-15T00:01:18.124Z,4.25
2022-11-15T00:03:50.481Z,4.35
2022-11-15T00:06:22.367Z,4.38
2022-11-15T00:08:49.334Z,4.47
2022-11-15T00:11:16.347Z,4.41
2022-11-15T00:13:40.810Z,4.37
2022-11-15T00:16:07.028Z,4.15
2022-11-15T00:18:39.868Z,4.24
2022-11-15T00:21:14.511Z,4.10
2022-11-15T00:23:43.049Z,3.93
2022-11-15T00:26:11.114Z,4.01
2022-11-15T00:28:35.701Z,4.03
2022-11-15T00:31:09.028Z,4.14
2022-11-15T00:33:35.990Z,4.18
2022-11-15T00:36:05.635Z,4.13
2022-11-15T00:38:34.878Z,3.86
2022-11-15T00:40:59.059Z,3.46
2022-11-15T00:43:27.135Z,3.36
2022-11-15T00:45:51.627Z,3.22
2022-11-15T00:48:16.182Z,2.95
2022-11-15T00:52:07.807Z,2.98
2022-11-15T00:54:33.112Z,3.03
2022-11-15T00:56:58.231Z,2.89
2022-11-15T00:59:22.898Z,2.75
2022-11-15T01:01:49.832Z,2.71
2022-11-15T01:04:14.079Z,2.65
2022-11-15T01:06:38.744Z,2.52
2022-11-15T01:09:14.702Z,2.57
2022-11-15T01:11:39.328Z,2.63
2022-11-15T01:14:04.738Z,2.75
2022-11-15T01:16:29.305Z,2.73
2022-11-15T01:19:00.523Z,2.78
2022-11-15T01:21:32.522Z,2.79
2022-11-15T01:24:09.997Z,2.71
2022-11-15T01:26:44.364Z,2.47
2022-11-15T01:29:09.043Z,2.45
2022-11-15T01:31:35.230Z,2.30
2022-11-15T01:34:02.520Z,2.19
2022-11-15T01:36:26.968Z,2.29
2022-11-15T01:38:51.354Z,2.45
2022-11-15T01:41:26.369Z,2.53
2022-11-15T01:43:58.215Z,2.64
2022-11-15T01:46:34.923Z,2.61
2022-11-15T01:49:06.418Z,2.72
2022-11-15T01:51:37.684Z,2.36
2022-11-15T01:54:14.668Z,2.39
2022-11-15T01:56:50.050Z,2.47
2022-11-15T01:59:19.606Z,2.32
2022-11-15T02:01:46.181Z,2.37
2022-11-15T02:04:19.731Z,2.27
2022-11-15T02:06:53.692Z,2.39
2022-11-15T02:09:22.917Z,2.40
2022-11-15T02:11:52.085Z,2.33
2022-11-15T02:14:26.347Z,2.23
2022-11-15T02:17:06.151Z,2.47
2022-11-15T02:20:19.984Z,2.41
2022-11-15T02:23:18.172Z,2.34
2022-11-15T02:25:58.581Z,2.25
2022-11-15T02:28:55.872Z,2.55
2022-11-15T02:31:38.367Z,2.49
2022-11-15T02:34:21.597Z,2.43
2022-11-15T02:36:58.237Z,2.53
2022-11-15T02:39:37.243Z,2.48
2022-11-15T02:42:31.755Z,2.61
2022-11-15T02:45:12.867Z,2.47
2022-11-15T02:47:48.280Z,2.19
2022-11-15T02:50:23.396Z,2.33
2022-11-15T02:52:51.767Z,2.50
2022-11-15T02:55:35.513Z,2.47
2022-11-15T02:58:32.287Z,2.36
2022-11-15T03:01:17.774Z,2.48
2022-11-15T03:04:07.772Z,2.43
2022-11-15T03:06:47.052Z,2.16
2022-11-15T03:09:27.702Z,2.03
2022-11-15T03:12:05.075Z,1.94
2022-11-15T03:14:39.039Z,1.96
2022-11-15T03:17:19.631Z,2.04
2022-11-15T03:20:08.080Z,2.28
2022-11-15T03:22:40.491Z,2.33
2022-11-15T03:25:12.811Z,2.15
2022-11-15T03:27:53.039Z,2.18
2022-11-15T03:30:36.125Z,2.30
2022-11-15T03:33:07.942Z,2.18
2022-11-15T03:35:44.553Z,2.20
2022-11-15T03:38:23.617Z,2.25
2022-11-15T03:41:02.474Z,2.40
2022-11-15T03:43:40.178Z,2.56
2022-11-15T03:46:11.883Z,2.58
2022-11-15T03:48:46.868Z,2.55
2022-11-15T03:51:20.209Z,2.37
2022-11-15T03:53:46.225Z,2.51
2022-11-15T03:56:11.292Z,2.27
2022-11-15T03:58:38.359Z,2.18
2022-11-15T04:01:03.846Z,1.91
2022-11-15T04:03:28.313Z,1.81
2022-11-15T04:05:53.677Z,1.85
2022-11-15T04:08:30.615Z,2.03
2022-11-15T04:10:56.236Z,2.07
2022-11-15T04:13:20.560Z,2.08
2022-11-15T04:15:45.897Z,2.06
2022-11-15T04:18:13.118Z,1.96
2022-11-15T04:20:50.662Z,2.11
2022-11-15T04:23:31.842Z,2.06
2022-11-15T04:26:03.260Z,2.00
2022-11-15T04:28:28.362Z,1.86
2022-11-15T04:30:53.108Z,1.93
2022-11-15T04:33:18.546Z,1.86
2022-11-15T04:35:43.792Z,1.81
2022-11-15T04:38:08.993Z,1.86
2022-11-15T04:40:33.638Z,1.83
2022-11-15T04:43:04.831Z,1.91
2022-11-15T04:45:30.422Z,1.84
2022-11-15T04:47:56.178Z,1.78
2022-11-15T04:50:21.450Z,1.75
2022-11-15T04:52:53.529Z,1.68
2022-11-15T04:55:18.138Z,1.65
2022-11-15T04:57:43.084Z,1.72
2022-11-15T05:00:14.975Z,1.60
2022-11-15T05:02:51.687Z,1.54
2022-11-15T05:05:16.842Z,1.75
2022-11-15T05:07:41.271Z,1.74
2022-11-15T05:10:05.469Z,1.74
2022-11-15T05:12:38.397Z,1.69
2022-11-15T05:15:07.758Z,1.75
2022-11-15T05:17:34.705Z,1.69
2022-11-15T05:20:00.167Z,1.60
2022-11-15T05:22:26.339Z,1.29
2022-11-15T05:24:50.695Z,1.28
2022-11-15T05:27:16.020Z,1.25
2022-11-15T05:29:40.238Z,1.32
2022-11-15T05:32:04.747Z,1.40
2022-11-15T05:34:32.875Z,1.33
2022-11-15T05:36:57.951Z,1.27
2022-11-15T05:39:22.324Z,1.28
2022-11-15T05:41:54.679Z,1.21
2022-11-15T05:44:27.467Z,1.17
2022-11-15T05:46:57.174Z,1.08
2022-11-15T05:49:31.723Z,1.03
2022-11-15T05:52:00.759Z,1.02
2022-11-15T05:54:29.375Z,0.98
2022-11-15T05:56:54.354Z,0.87
2022-11-15T05:59:22.107Z,0.71
2022-11-15T06:01:46.368Z,0.72
2022-11-15T06:04:11.002Z,0.79
2022-11-15T06:06:36.462Z,0.94
2022-11-15T06:09:03.382Z,1.01
2022-11-15T06:11:27.427Z,1.06
2022-11-15T06:13:52.975Z,1.08
2022-11-15T06:16:17.481Z,0.90
2022-11-15T06:18:42.968Z,0.70
2022-11-15T06:21:09.218Z,0.65
2022-11-15T06:23:37.633Z,0.90
2022-11-15T06:26:06.988Z,1.06
2022-11-15T06:28:33.123Z,1.23
2022-11-15T06:30:57.462Z,1.29
2022-11-15T06:33:21.808Z,1.32
2022-11-15T06:35:47.019Z,1.49
2022-11-15T06:38:15.925Z,1.62
2022-11-15T06:40:42.691Z,1.55
2022-11-15T06:43:11.162Z,1.46
2022-11-15T06:45:36.341Z,1.49
2022-11-15T06:48:01.026Z,1.82
2022-11-15T06:50:26.024Z,2.00
2022-11-15T06:52:50.539Z,2.03
2022-11-15T06:55:14.987Z,2.19
2022-11-15T06:57:40.926Z,2.32
2022-11-15T07:00:10.495Z,2.45
2022-11-15T07:02:35.300Z,2.66
2022-11-15T07:05:00.398Z,2.73
2022-11-15T07:07:24.634Z,2.79
2022-11-15T07:09:49.058Z,2.93
2022-11-15T07:12:13.972Z,3.01
2022-11-15T07:14:38.364Z,3.25
2022-11-15T07:17:08.424Z,3.41
2022-11-15T07:19:33.446Z,3.62
2022-11-15T07:21:57.587Z,3.67
2022-11-15T07:24:21.704Z,3.94
2022-11-15T07:26:46.946Z,4.20
2022-11-15T07:29:11.151Z,4.40
2022-11-15T07:31:35.572Z,4.62
2022-11-15T07:34:03.699Z,4.69
2022-11-15T07:36:28.892Z,4.96
2022-11-15T07:38:53.191Z,4.79
2022-11-15T07:41:20.886Z,5.17
2022-11-15T07:43:45.034Z,5.30
2022-11-15T07:46:11.870Z,5.22
2022-11-15T07:48:45.596Z,4.79
2022-11-15T07:51:17.010Z,4.62
2022-11-15T07:53:46.489Z,4.57
2022-11-15T07:56:12.651Z,4.36
2022-11-15T07:58:37.050Z,4.86
2022-11-15T08:01:02.395Z,4.62
2022-11-15T08:03:26.800Z,4.62
2022-11-15T08:05:55.684Z,4.47
2022-11-15T08:08:23.710Z,4.52
2022-11-15T08:10:48.165Z,4.96
2022-11-15T08:13:15.561Z,5.11
2022-11-15T08:15:41.911Z,5.25
2022-11-15T08:18:10.383Z,5.25
2022-11-15T08:20:35.864Z,5.25
2022-11-15T08:23:02.358Z,5.22
2022-11-15T08:25:31.046Z,5.00
2022-11-15T08:27:57.032Z,5.11
2022-11-15T08:30:22.268Z,5.26
2022-11-15T08:32:46.956Z,5.41
2022-11-15T08:35:12.257Z,5.75
2022-11-15T08:37:37.319Z,6.27
2022-11-15T08:40:01.954Z,7.01
2022-11-15T08:42:29.010Z,7.69
2022-11-15T08:44:55.733Z,7.92
2022-11-15T08:47:20.011Z,8.09
2022-11-15T08:49:44.110Z,8.15
2022-11-15T08:52:09.785Z,8.36
2022-11-15T08:54:33.958Z,8.97
2022-11-15T08:56:58.374Z,8.74
2022-11-15T08:59:27.238Z,9.08
2022-11-15T09:01:51.649Z,8.55
2022-11-15T09:04:16.033Z,8.23
2022-11-15T09:06:43.299Z,8.05
2022-11-15T09:09:07.955Z,8.67
2022-11-15T09:11:32.270Z,9.55
2022-11-15T09:14:00.236Z,9.52
2022-11-15T09:16:27.497Z,9.21
2022-11-15T09:18:52.153Z,9.81
2022-11-15T09:21:17.999Z,9.85
2022-11-15T09:23:42.540Z,9.29
2022-11-15T09:26:09.602Z,10.00
2022-11-15T09:28:39.363Z,10.25
2022-11-15T09:31:06.965Z,10.03
2022-11-15T09:33:35.816Z,9.98
2022-11-15T09:36:07.842Z,9.57
2022-11-15T09:38:32.988Z,10.14
2022-11-15T09:41:37.868Z,10.71
2022-11-15T09:44:36.829Z,10.83
2022-11-15T09:47:33.224Z,10.90
2022-11-15T09:50:21.577Z,10.50
2022-11-15T09:52:28.312Z,10.10
2022-11-15T09:54:52.840Z,10.12
2022-11-15T09:57:16.259Z,10.26
2022-11-15T09:59:51.385Z,9.88
2022-11-15T10:02:16.865Z,10.46
2022-11-15T10:04:24.900Z,10.92
2022-11-15T10:06:40.085Z,11.53
2022-11-15T10:09:05.054Z,11.72
2022-11-15T10:13:51.441Z,11.49
2022-11-15T10:16:08.423Z,11.48
2022-11-15T10:18:38.589Z,11.87
2022-11-15T10:20:53.251Z,12.15
2022-11-15T10:23:10.701Z,12.06
2022-11-15T10:25:24.335Z,11.32
2022-11-15T10:27:30.074Z,11.11
2022-11-15T10:29:35.753Z,11.33
2022-11-15T10:31:45.475Z,11.68
2022-11-15T10:33:51.327Z,12.17
2022-11-15T10:36:27.714Z,12.42
2022-11-15T10:38:36.995Z,12.07
2022-11-15T10:40:46.125Z,12.05
2022-11-15T10:43:07.576Z,11.61
2022-11-15T10:45:34.510Z,11.08
2022-11-15T10:47:40.186Z,10.91
2022-11-15T10:50:03.685Z,11.15
2022-11-15T10:52:25.184Z,11.09
2022-11-15T10:54:45.000Z,11.11
2022-11-15T10:56:55.100Z,10.87
2022-11-15T10:59:14.745Z,10.91
2022-11-15T11:01:34.222Z,10.88
2022-11-15T11:03:45.582Z,11.02
2022-11-15T11:05:52.302Z,11.21
2022-11-15T11:08:04.138Z,11.22
2022-11-15T11:12:52.721Z,11.60
2022-11-15T11:14:58.558Z,11.79
2022-11-15T11:17:17.672Z,11.96
2022-11-15T11:20:05.845Z,11.99
2022-11-15T11:22:29.434Z,12.22
2022-11-15T11:24:45.112Z,12.45
2022-11-15T11:27:16.619Z,12.64
2022-11-15T11:29:42.699Z,13.15
2022-11-15T11:32:08.202Z,13.34
2022-11-15T11:34:34.738Z,13.51
2022-11-15T11:36:57.603Z,13.30
2022-11-15T11:39:39.233Z,13.22
2022-11-15T11:42:06.178Z,13.26
2022-11-15T11:44:34.674Z,13.43
2022-11-15T11:46:58.004Z,13.56
2022-11-15T11:49:15.659Z,13.66
2022-11-15T11:51:31.599Z,13.49
2022-11-15T11:53:50.519Z,13.61
2022-11-15T11:56:04.970Z,13.71
2022-11-15T11:58:23.742Z,13.77
2022-11-15T12:00:34.684Z,13.94
2022-11-15T12:02:48.952Z,14.04
2022-11-15T12:05:07.436Z,14.14
2022-11-15T12:07:24.524Z,14.18
2022-11-15T12:09:40.821Z,14.16
2022-11-15T12:12:02.325Z,14.18
2022-11-15T12:14:36.229Z,14.04
2022-11-15T12:16:55.747Z,13.96
2022-11-15T12:19:08.092Z,13.83
2022-11-15T12:21:31.373Z,13.73
2022-11-15T12:23:49.665Z,13.48
2022-11-15T12:26:05.986Z,13.41
2022-11-15T12:28:25.212Z,13.46
2022-11-15T12:30:53.216Z,13.54
2022-11-15T12:33:04.096Z,13.68
2022-11-15T12:35:30.628Z,13.71
2022-11-15T12:37:56.400Z,13.51
2022-11-15T12:40:33.002Z,13.29
2022-11-15T12:42:47.107Z,13.25
2022-11-15T12:45:03.186Z,13.19
2022-11-15T12:47:30.145Z,13.04
2022-11-15T12:49:51.459Z,12.93
2022-11-15T12:52:14.730Z,12.93
2022-11-15T12:54:55.064Z,12.81
2022-11-15T12:57:32.857Z,12.80
2022-11-15T12:59:56.349Z,12.79
2022-11-15T13:02:04.605Z,12.83
2022-11-15T13:04:27.971Z,12.80
2022-11-15T13:06:50.884Z,12.76
2022-11-15T13:08:57.253Z,12.73
2022-11-15T13:11:38.109Z,12.66
2022-11-15T13:13:49.447Z,12.58
2022-11-15T13:16:04.879Z,12.43
2022-11-15T13:18:35.035Z,12.38
2022-11-15T13:20:49.705Z,12.42
2022-11-15T13:23:03.334Z,12.42
2022-11-15T13:25:25.272Z,12.43
2022-11-15T13:27:33.278Z,12.32
2022-11-15T13:29:39.005Z,12.26
2022-11-15T13:31:51.513Z,12.35
2022-11-15T13:34:22.922Z,12.42
2022-11-15T13:36:38.185Z,12.43
2022-11-15T13:38:45.892Z,12.37
2022-11-15T13:40:52.470Z,12.24
2022-11-15T13:42:58.855Z,12.19
2022-11-15T13:45:21.140Z,12.05
2022-11-15T13:47:32.838Z,11.93
2022-11-15T13:49:39.685Z,11.45
2022-11-15T13:51:58.527Z,11.04
2022-11-15T13:54:24.533Z,10.65
2022-11-15T13:56:35.277Z,10.29
2022-11-15T13:58:43.223Z,10.03
2022-11-15T14:00:51.501Z,9.77
2022-11-15T14:03:00.932Z,9.68
2022-11-15T14:05:25.102Z,9.52
2022-11-15T14:07:43.271Z,9.43
2022-11-15T14:09:52.597Z,9.51
2022-11-15T14:12:00.957Z,9.24
2022-11-15T14:14:18.707Z,9.31
2022-11-15T14:16:37.366Z,9.31
2022-11-15T14:18:55.096Z,9.11
2022-11-15T14:21:10.920Z,9.04
2022-11-15T14:23:31.448Z,9.07
2022-11-15T14:25:39.387Z,9.09
2022-11-15T14:27:48.633Z,8.94
2022-11-15T14:29:54.922Z,8.91
2022-11-15T14:32:20.318Z,8.90
2022-11-15T14:34:26.851Z,8.80
2022-11-15T14:36:32.563Z,8.84
2022-11-15T14:38:40.987Z,8.75
2022-11-15T14:40:49.767Z,8.74
2022-11-15T14:42:55.495Z,8.74
2022-11-15T14:45:09.268Z,8.71
2022-11-15T14:47:19.301Z,8.72
2022-11-15T14:49:24.952Z,8.82
2022-11-15T14:51:30.610Z,9.01
2022-11-15T14:53:37.098Z,9.19
2022-11-15T14:55:53.053Z,9.37
2022-11-15T14:57:59.515Z,9.53
2022-11-15T15:00:21.114Z,9.60
2022-11-15T15:02:30.904Z,9.67
2022-11-15T15:04:36.646Z,9.67
2022-11-15T15:06:46.225Z,9.64
2022-11-15T15:08:52.242Z,9.53
2022-11-15T15:11:00.789Z,9.44
2022-11-15T15:13:08.037Z,9.49
2022-11-15T15:15:27.576Z,9.51
2022-11-15T15:17:33.291Z,9.47
2022-11-15T15:19:39.807Z,9.37
2022-11-15T15:21:45.518Z,9.35
2022-11-15T15:23:51.620Z,9.33
2022-11-15T15:26:04.964Z,9.20
2022-11-15T15:28:10.678Z,8.82
2022-11-15T15:30:17.505Z,8.56
2022-11-15T15:32:24.142Z,8.49
2022-11-15T15:34:29.928Z,8.35
2022-11-15T15:36:35.761Z,8.33
2022-11-15T15:38:42.882Z,8.32
2022-11-15T15:40:51.357Z,8.31
2022-11-15T15:43:01.628Z,8.47
2022-11-15T15:45:10.028Z,8.41
2022-11-15T15:47:19.911Z,8.29
2022-11-15T15:49:25.749Z,8.29
2022-11-15T15:51:32.305Z,8.39
2022-11-15T15:53:38.961Z,8.41
2022-11-15T15:55:47.800Z,8.48
2022-11-15T15:57:54.954Z,8.48
2022-11-15T16:00:03.303Z,8.35
2022-11-15T16:02:18.641Z,8.30
2022-11-15T16:04:25.711Z,8.24
2022-11-15T16:06:45.348Z,8.15
2022-11-15T16:09:13.462Z,7.89
2022-11-15T16:11:17.957Z,7.60
2022-11-15T16:13:24.392Z,7.49
2022-11-15T16:15:35.991Z,7.39
2022-11-15T16:17:49.449Z,7.40
2022-11-15T16:19:55.218Z,7.36
2022-11-15T16:22:00.918Z,7.38
2022-11-15T16:24:08.953Z,7.40
2022-11-15T16:26:25.905Z,7.54
2022-11-15T16:28:36.940Z,7.64
2022-11-15T16:30:55.390Z,7.67
2022-11-15T16:33:02.515Z,7.60
2022-11-15T16:35:09.380Z,7.68
2022-11-15T16:37:27.024Z,7.88
2022-11-15T16:39:39.321Z,8.05
2022-11-15T16:41:56.526Z,8.31
2022-11-15T16:44:03.100Z,8.46
2022-11-15T16:46:20.520Z,8.42
2022-11-15T16:48:29.672Z,8.42
2022-11-15T16:50:43.233Z,8.28
2022-11-15T16:52:49.001Z,8.20
2022-11-15T16:54:54.722Z,8.04
2022-11-15T16:57:01.282Z,7.95
2022-11-15T16:59:07.094Z,7.95
2022-11-15T17:01:25.120Z,8.08
2022-11-15T17:03:32.235Z,8.22
2022-11-15T17:05:37.972Z,8.34
2022-11-15T17:07:49.144Z,8.14
2022-11-15T17:09:55.695Z,7.88
2022-11-15T17:12:08.303Z,7.66
2022-11-15T17:14:16.532Z,7.56
2022-11-15T17:16:25.853Z,7.62
2022-11-15T17:18:31.744Z,7.77
2022-11-15T17:20:37.721Z,7.64
2022-11-15T17:22:44.494Z,7.47
2022-11-15T17:24:50.716Z,7.54
2022-11-15T17:26:56.468Z,7.71
2022-11-15T17:29:06.312Z,7.68
2022-11-15T17:31:14.782Z,7.64
2022-11-15T17:33:23.078Z,7.58
2022-11-15T17:35:31.596Z,7.44
2022-11-15T17:37:37.847Z,7.35
2022-11-15T17:39:45.970Z,7.52
2022-11-15T17:41:52.922Z,7.55
2022-11-15T17:44:05.799Z,7.47
2022-11-15T17:46:17.704Z,7.50
2022-11-15T17:48:26.932Z,7.37
2022-11-15T17:50:34.134Z,7.36
2022-11-15T17:52:39.852Z,7.39
2022-11-15T17:54:48.570Z,7.36
2022-11-15T17:56:54.232Z,7.37
2022-11-15T17:59:03.173Z,7.20
2022-11-15T18:01:12.710Z,6.98
2022-11-15T18:03:18.762Z,6.87
2022-11-15T18:05:27.105Z,6.93
2022-11-15T18:07:33.975Z,7.03
2022-11-15T18:09:42.503Z,7.09
2022-11-15T18:11:53.783Z,7.07
2022-11-15T18:14:03.887Z,7.08
2022-11-15T18:16:14.556Z,7.01
2022-11-15T18:18:20.345Z,6.99
2022-11-15T18:20:29.594Z,6.85
2022-11-15T18:22:35.317Z,6.85
2022-11-15T18:24:43.092Z,6.83
2022-11-15T18:26:49.669Z,6.78
2022-11-15T18:28:57.550Z,6.77
2022-11-15T18:31:06.269Z,6.75
2022-11-15T18:33:12.807Z,6.66
2022-11-15T18:35:18.695Z,6.68
2022-11-15T18:37:34.823Z,6.60
2022-11-15T18:39:41.399Z,6.71
2022-11-15T18:41:49.493Z,6.82
2022-11-15T19:11:59.069Z,7.95
2022-11-15T19:14:09.902Z,7.99
2022-11-15T19:16:19.161Z,8.02
2022-11-15T19:18:24.916Z,8.08
2022-11-15T19:20:31.439Z,8.22
2022-11-15T19:22:37.261Z,8.33
2022-11-15T19:24:43.008Z,8.48
2022-11-15T19:26:49.746Z,8.59
2022-11-15T19:29:00.645Z,8.45
2022-11-15T19:31:10.444Z,8.37
2022-11-15T19:33:17.278Z,8.24
2022-11-15T19:35:32.675Z,8.25
2022-11-15T19:37:40.608Z,8.31
2022-11-15T19:39:47.201Z,8.40
2022-11-15T19:41:53.773Z,8.57
2022-11-15T19:44:09.084Z,8.66
2022-11-15T19:46:18.718Z,8.73
2022-11-15T19:48:25.063Z,8.77
2022-11-15T19:50:30.846Z,8.58
2022-11-15T19:52:37.499Z,8.57
2022-11-15T19:54:47.452Z,8.47
2022-11-15T19:56:56.462Z,8.27
2022-11-15T19:59:06.835Z,8.03
2022-11-15T20:01:21.066Z,8.01
2022-11-15T20:03:28.396Z,8.12
2022-11-15T20:05:34.892Z,8.28
2022-11-15T20:07:40.877Z,8.42
2022-11-15T20:09:54.548Z,8.60
2022-11-15T20:12:01.201Z,8.74
2022-11-15T20:14:11.876Z,8.81
2022-11-15T20:16:21.971Z,8.86
2022-11-15T20:18:33.581Z,8.80
2022-11-15T20:20:39.619Z,8.70
2022-11-15T20:22:45.689Z,8.56
2022-11-15T20:24:52.211Z,8.67
2022-11-15T20:26:57.928Z,8.76
2022-11-15T20:29:13.813Z,8.80
2022-11-15T20:31:22.027Z,8.74
2022-11-15T20:33:29.691Z,8.37
2022-11-15T20:35:35.452Z,8.07
2022-11-15T20:37:42.866Z,7.86
2022-11-15T20:39:48.789Z,7.83
2022-11-15T20:41:54.467Z,7.82
2022-11-15T20:45:49.326Z,7.87
2022-11-15T20:48:19.005Z,7.88
2022-11-15T20:50:41.584Z,7.90
2022-11-15T20:52:48.805Z,7.77
2022-11-15T20:54:55.658Z,7.80
2022-11-15T20:57:01.506Z,7.85
2022-11-15T20:59:07.338Z,7.74
2022-11-15T21:01:23.917Z,8.02
2022-11-15T21:05:33.386Z,8.42
2022-11-15T21:07:45.023Z,8.57
2022-11-15T21:10:03.186Z,8.73
2022-11-15T21:12:12.805Z,8.77
2022-11-15T21:14:19.507Z,8.82
2022-11-15T21:16:25.289Z,8.84
2022-11-15T21:18:31.201Z,8.86
2022-11-15T21:20:42.985Z,8.87
2022-11-15T21:22:49.672Z,8.96
2022-11-15T21:24:59.083Z,8.94
2022-11-15T21:27:05.767Z,8.97
2022-11-15T21:29:17.462Z,9.07
2022-11-15T21:31:23.341Z,9.07
2022-11-15T21:33:34.465Z,8.99
2022-11-15T21:35:46.478Z,8.90
2022-11-15T21:37:57.064Z,8.76
2022-11-15T21:40:03.917Z,8.54
2022-11-15T21:42:09.752Z,8.37
2022-11-15T21:44:15.483Z,8.31
2022-11-15T21:46:23.130Z,8.43
2022-11-15T21:48:33.395Z,8.68
2022-11-15T21:50:39.317Z,8.81
2022-11-15T21:52:54.636Z,8.96
2022-11-15T21:55:00.380Z,9.10
2022-11-15T21:57:20.592Z,8.89
2022-11-15T21:59:27.292Z,8.86
2022-11-15T22:01:45.543Z,8.57
2022-11-15T22:03:55.213Z,8.35
2022-11-15T22:06:02.069Z,8.27
2022-11-15T22:08:10.456Z,8.03
2022-11-15T22:10:17.031Z,7.97
2022-11-15T22:12:27.084Z,7.93
2022-11-15T22:14:35.368Z,7.89
2022-11-15T22:16:41.575Z,7.89
2022-11-15T22:18:48.238Z,7.84
2022-11-15T22:20:58.621Z,7.83
2022-11-15T22:23:04.571Z,7.95
2022-11-15T22:25:14.109Z,8.03
2022-11-15T22:27:19.868Z,7.86
2022-11-15T22:29:25.783Z,8.00
2022-11-15T22:31:32.403Z,7.89
2022-11-15T22:33:43.142Z,7.74
2022-11-15T22:35:51.771Z,7.69
2022-11-15T22:38:01.725Z,7.72
2022-11-15T22:40:09.984Z,7.62
2022-11-15T22:42:23.382Z,7.60
2022-11-15T22:44:40.589Z,7.60
2022-11-15T22:46:46.362Z,7.52
2022-11-15T22:48:52.125Z,7.38
2022-11-15T22:51:01.589Z,7.29
2022-11-15T22:53:10.904Z,7.16
2022-11-15T22:55:18.048Z,7.08
2022-11-15T22:57:27.285Z,7.05
2022-11-15T22:59:36.537Z,6.97
2022-11-15T23:01:45.397Z,7.00
2022-11-15T23:03:57.363Z,6.92
2022-11-15T23:06:10.378Z,6.87
2022-11-15T23:08:17.159Z,6.93
2022-11-15T23:10:36.140Z,6.99
2022-11-15T23:12:56.961Z,7.06
2022-11-15T23:15:02.735Z,7.17
2022-11-15T23:17:09.541Z,7.24
2022-11-15T23:19:16.182Z,7.29
2022-11-15T23:21:38.216Z,7.24
2022-11-15T23:23:45.186Z,7.26
2022-11-15T23:25:51.081Z,7.28
2022-11-15T23:27:59.566Z,7.32
2022-11-15T23:30:19.147Z,7.31
2022-11-15T23:32:38.082Z,7.27
2022-11-15T23:34:47.434Z,7.23
2022-11-15T23:36:54.354Z,7.24
2022-11-15T23:39:00.192Z,7.32
2022-11-15T23:41:07.609Z,7.21
2022-11-15T23:43:16.881Z,7.23
2022-11-15T23:45:22.659Z,7.24
2022-11-15T23:47:59.954Z,7.14
2022-11-15T23:50:08.982Z,7.13
2022-11-15T23:52:15.670Z,7.13
2022-11-15T23:54:21.477Z,7.09
2022-11-15T23:56:28.525Z,7.18
2022-11-15T23:58:35.199Z,7.29
